Time;durP1;ratioP1;P1;durP2;ratioP2;P2;SDS_P1;SDS_P2;PMS_P1;PMS_P2;Temp;Humidity;BMP_temperature;BMP_pressure;BME280_temperature;BME280_humidity;BME280_pressure;Samples;Min_cycle;Max_cycle;Signal;HPM_P1;HPM_P2
2022/11/12 00:00:40;;;;;;;;;;;;;;;14.04;100.00;100402.06;5019592;28;19920;-43
2022/11/12 00:03:05;;;;;;;;;;;;;;;14.31;100.00;100397.94;5021330;28;20272;-43
2022/11/12 00:05:30;;;;;;;;;;;;;;;14.20;100.00;100393.00;5019911;28;19996;-43
2022/11/12 00:07:55;;;;;;;;;;;;;;;13.90;100.00;100399.78;5019402;28;19921;-43
2022/11/12 00:10:21;;;;;;;;;;;;;;;13.89;100.00;100405.84;5019999;28;21149;-43
2022/11/12 00:12:46;;;;;;;;;;;;;;;13.55;100.00;100419.56;5017106;28;20395;-43
2022/11/12 00:15:11;;;;;;;;;;;;;;;13.69;100.00;100414.06;5019276;28;19921;-43
2022/11/12 00:17:37;;;;;;;;;;;;;;;13.58;100.00;100425.50;5019915;28;20401;-43
2022/11/12 00:20:02;;;;;;;;;;;;;;;13.07;100.00;100428.25;5016775;28;19924;-43
2022/11/12 00:22:27;;;;;;;;;;;;;;;12.61;100.00;100446.31;5018983;28;19928;-43
2022/11/12 00:24:53;;;;;;;;;;;;;;;12.60;100.00;100447.22;5019770;28;20522;-43
2022/11/12 00:27:18;;;;;;;;;;;;;;;12.94;100.00;100437.97;5019888;28;20047;-43
2022/11/12 00:29:43;;;;;;;;;;;;;;;12.92;100.00;100429.38;5017893;28;19956;-43
2022/11/12 00:32:08;;;;;;;;;;;;;;;12.94;100.00;100432.78;5019038;28;19956;-43
2022/11/12 00:34:34;;;;;;;;;;;;;;;12.75;100.00;100429.69;5019716;28;19917;-43
2022/11/12 00:36:59;;;;;;;;;;;;;;;12.29;100.00;100448.56;5018183;28;19920;-43
2022/11/12 00:39:24;;;;;;;;;;;;;;;12.77;100.00;100440.00;5018360;28;19948;-43
2022/11/12 00:41:49;;;;;;;;;;;;;;;12.74;100.00;100442.66;5018089;28;19917;-43
2022/11/12 00:44:15;;;;;;;;;;;;;;;13.11;100.00;100434.19;5019531;28;19927;-43
2022/11/12 00:46:40;;;;;;;;;;;;;;;13.25;100.00;100431.34;5018510;28;20003;-43
2022/11/12 00:49:05;;;;;;;;;;;;;;;13.19;100.00;100427.16;5019673;28;20310;-43
2022/11/12 00:51:30;;;;;;;;;;;;;;;13.14;100.00;100429.84;5018806;28;20004;-43
2022/11/12 00:53:56;;;;;;;;;;;;;;;12.93;100.00;100438.84;5017934;28;20117;-43
2022/11/12 00:56:21;;;;;;;;;;;;;;;13.35;100.00;100428.56;5019720;28;20004;-43
2022/11/12 00:58:46;;;;;;;;;;;;;;;13.69;100.00;100432.19;5018148;28;19935;-43
2022/11/12 01:01:12;;;;;;;;;;;;;;;13.80;100.00;100423.31;5018815;28;19963;-43
2022/11/12 01:03:38;;;;;;;;;;;;;;;14.23;99.07;100422.31;5018983;28;20031;-43
2022/11/12 01:06:10;;;;;;;;;;;;;;;13.99;99.58;100430.66;5018338;28;19963;-43
2022/11/12 01:08:36;;;;;;;;;;;;;;;13.64;99.93;100440.06;5018631;28;19921;-43
2022/11/12 01:11:08;;;;;;;;;;;;;;;13.77;100.00;100441.47;5017647;28;19927;-43
2022/11/12 01:13:33;;;;;;;;;;;;;;;13.64;100.00;100444.38;5018914;28;20082;-43
2022/11/12 01:15:58;;;;;;;;;;;;;;;13.26;100.00;100444.25;5018803;28;20418;-43
2022/11/12 01:18:23;;;;;;;;;;;;;;;12.94;100.00;100448.31;5018053;28;19925;-43
2022/11/12 01:20:49;;;;;;;;;;;;;;;13.29;100.00;100439.03;5019398;28;19921;-43
2022/11/12 01:23:14;;;;;;;;;;;;;;;13.58;100.00;100440.19;5017212;28;19928;-43
2022/11/12 01:25:39;;;;;;;;;;;;;;;13.56;100.00;100439.38;5019066;28;19929;-43
2022/11/12 01:28:04;;;;;;;;;;;;;;;13.08;100.00;100449.78;5017718;28;19927;-43
2022/11/12 01:30:29;;;;;;;;;;;;;;;12.91;100.00;100460.47;5017992;28;20000;-43
2022/11/12 01:32:55;;;;;;;;;;;;;;;13.00;100.00;100459.41;5017152;28;19986;-43
2022/11/12 01:35:20;;;;;;;;;;;;;;;13.20;100.00;100452.13;5018385;28;20378;-43
2022/11/12 01:37:45;;;;;;;;;;;;;;;13.54;100.00;100452.31;5017413;28;19971;-43
2022/11/12 01:40:11;;;;;;;;;;;;;;;13.38;100.00;100444.03;5018420;28;20464;-43
2022/11/12 01:42:36;;;;;;;;;;;;;;;13.74;100.00;100444.16;5018811;28;20213;-43
2022/11/12 01:45:01;;;;;;;;;;;;;;;13.44;100.00;100445.66;5000236;28;19998;-43
2022/11/12 01:47:28;;;;;;;;;;;;;;;13.67;100.00;100445.16;5018776;28;20015;-42
2022/11/12 01:50:19;;;;;;;;;;;;;;;13.54;100.00;100434.22;5017693;28;19999;-42
2022/11/12 01:52:45;;;;;;;;;;;;;;;13.00;100.00;100451.66;5015814;28;19921;-42
2022/11/12 01:55:12;;;;;;;;;;;;;;;13.75;100.00;100432.91;5018258;28;20464;-42
2022/11/12 01:57:42;;;;;;;;;;;;;;;13.95;100.00;100424.69;5016815;28;20008;-42
2022/11/12 02:00:09;;;;;;;;;;;;;;;13.70;100.00;100434.72;5015574;28;19974;-42
2022/11/12 02:02:35;;;;;;;;;;;;;;;13.18;100.00;100435.78;5019374;28;19917;-42
2022/11/12 02:05:01;;;;;;;;;;;;;;;13.93;99.47;100425.59;5017934;28;20003;-42
2022/11/12 02:07:26;;;;;;;;;;;;;;;13.59;98.80;100422.03;5017542;28;20360;-43
2022/11/12 02:09:51;;;;;;;;;;;;;;;13.66;98.37;100415.00;5015856;28;19995;-42
2022/11/12 02:15:02;;;;;;;;;;;;;;;13.10;100.00;100437.69;4993905;28;20007;-42
2022/11/12 02:17:27;;;;;;;;;;;;;;;12.35;100.00;100445.03;5017852;28;20036;-43
2022/11/12 02:19:53;;;;;;;;;;;;;;;12.71;100.00;100429.78;5017423;28;19925;-42
2022/11/12 02:22:18;;;;;;;;;;;;;;;13.21;100.00;100440.06;5017124;28;19921;-42
2022/11/12 02:24:43;;;;;;;;;;;;;;;13.01;100.00;100437.84;5019380;28;20059;-42
2022/11/12 02:27:08;;;;;;;;;;;;;;;13.04;100.00;100436.03;5021772;28;20480;-42
2022/11/12 02:29:33;;;;;;;;;;;;;;;12.83;100.00;100449.38;5019396;28;20530;-42
2022/11/12 02:31:59;;;;;;;;;;;;;;;13.32;100.00;100436.41;5020717;28;19921;-42
2022/11/12 02:34:24;;;;;;;;;;;;;;;13.19;100.00;100443.53;5020810;28;19924;-42
2022/11/12 02:36:49;;;;;;;;;;;;;;;12.90;100.00;100451.81;5021764;28;19917;-42
2022/11/12 02:39:14;;;;;;;;;;;;;;;12.84;100.00;100459.72;5020698;28;19932;-43
2022/11/12 02:41:40;;;;;;;;;;;;;;;12.55;100.00;100468.81;5020306;28;20068;-42
2022/11/12 02:44:05;;;;;;;;;;;;;;;12.77;100.00;100465.84;5019479;28;20236;-42
2022/11/12 02:46:30;;;;;;;;;;;;;;;12.74;100.00;100463.31;5020179;28;19991;-42
2022/11/12 02:48:55;;;;;;;;;;;;;;;12.95;100.00;100454.31;5019592;28;19921;-43
2022/11/12 02:51:20;;;;;;;;;;;;;;;12.81;100.00;100452.00;5021612;28;19921;-42
2022/11/12 02:53:46;;;;;;;;;;;;;;;13.01;100.00;100461.13;5019480;28;20048;-43
2022/11/12 02:56:11;;;;;;;;;;;;;;;13.38;100.00;100446.63;5020950;28;19956;-42
2022/11/12 02:58:36;;;;;;;;;;;;;;;13.17;100.00;100449.59;5019789;28;19960;-43
2022/11/12 03:01:01;;;;;;;;;;;;;;;12.90;100.00;100457.00;5020684;28;19956;-43
2022/11/12 03:03:27;;;;;;;;;;;;;;;12.82;100.00;100448.53;5020676;28;20256;-43
2022/11/12 03:05:56;;;;;;;;;;;;;;;12.62;100.00;100453.22;5021188;28;19921;-43
2022/11/12 03:08:21;;;;;;;;;;;;;;;12.79;100.00;100453.75;5020543;28;19932;-43
2022/11/12 03:10:46;;;;;;;;;;;;;;;12.85;100.00;100448.47;5021076;28;19921;-43
2022/11/12 03:13:12;;;;;;;;;;;;;;;12.64;100.00;100454.03;5020724;28;20485;-43
2022/11/12 03:15:37;;;;;;;;;;;;;;;12.65;100.00;100437.63;5020756;28;20596;-43
2022/11/12 03:18:02;;;;;;;;;;;;;;;13.24;99.09;100430.50;5019479;28;20508;-43
2022/11/12 03:20:28;;;;;;;;;;;;;;;13.56;98.01;100432.44;5019695;28;20437;-43
2022/11/12 03:23:03;;;;;;;;;;;;;;;13.43;98.29;100431.00;5020676;28;19921;-43
2022/11/12 03:25:28;;;;;;;;;;;;;;;13.06;98.90;100436.03;5020854;28;19921;-43
2022/11/12 03:28:01;;;;;;;;;;;;;;;13.04;100.00;100440.38;5020579;28;20800;-42
2022/11/12 03:30:26;;;;;;;;;;;;;;;13.39;97.31;100425.03;5018888;28;20382;-43
2022/11/12 03:32:52;;;;;;;;;;;;;;;13.64;96.98;100419.34;5019998;28;19967;-43
2022/11/12 03:35:17;;;;;;;;;;;;;;;13.76;95.72;100418.22;5019590;28;19947;-43
2022/11/12 03:37:42;;;;;;;;;;;;;;;13.39;97.11;100419.88;5019734;28;20106;-43
2022/11/12 03:40:07;;;;;;;;;;;;;;;12.87;98.76;100420.88;5019927;28;20429;-43
2022/11/12 03:42:33;;;;;;;;;;;;;;;12.97;99.80;100429.28;5017960;28;19920;-43
2022/11/12 03:44:58;;;;;;;;;;;;;;;12.81;100.00;100435.63;5018883;28;19921;-43
2022/11/12 03:47:23;;;;;;;;;;;;;;;13.26;99.14;100423.56;5019824;28;19928;-43
2022/11/12 03:49:48;;;;;;;;;;;;;;;13.14;99.23;100416.06;5017597;28;19921;-43
2022/11/12 03:52:13;;;;;;;;;;;;;;;13.17;99.80;100415.97;5020297;28;19924;-43
2022/11/12 03:54:39;;;;;;;;;;;;;;;13.59;96.96;100403.03;5020419;28;19921;-43
2022/11/12 03:57:04;;;;;;;;;;;;;;;13.25;98.04;100405.47;5018653;28;19921;-42
2022/11/12 03:59:29;;;;;;;;;;;;;;;12.63;100.00;100416.13;5018635;28;20689;-42
2022/11/12 04:01:54;;;;;;;;;;;;;;;12.70;100.00;100425.47;5019238;28;20393;-42
2022/11/12 04:04:20;;;;;;;;;;;;;;;12.82;100.00;100417.53;5021403;28;20409;-42
2022/11/12 04:09:29;;;;;;;;;;;;;;;13.55;98.27;100404.03;5019880;28;19928;-42
2022/11/12 04:11:54;;;;;;;;;;;;;;;12.98;99.85;100411.16;5020049;28;19917;-42
2022/11/12 04:14:19;;;;;;;;;;;;;;;12.93;100.00;100412.13;5019712;28;19921;-42
2022/11/12 04:22:12;;;;;;;;;;;;;;;12.63;100.00;100414.38;5019735;28;20298;-42
2022/11/12 04:27:26;;;;;;;;;;;;;;;12.79;100.00;100399.47;5019880;28;19927;-42
2022/11/12 04:32:49;;;;;;;;;;;;;;;12.33;100.00;100413.19;5019649;28;19987;-42
2022/11/12 04:35:15;;;;;;;;;;;;;;;12.27;100.00;100413.28;5018260;28;19917;-42
2022/11/12 04:37:43;;;;;;;;;;;;;;;12.43;100.00;100400.97;5017385;28;20305;-42
2022/11/12 04:45:47;;;;;;;;;;;;;;;12.65;100.00;100383.34;5018450;28;19932;-43
2022/11/12 04:48:13;;;;;;;;;;;;;;;12.80;100.00;100382.25;5017788;28;19917;-42
2022/11/12 04:50:38;;;;;;;;;;;;;;;12.46;100.00;100383.69;5016774;28;20267;-42
2022/11/12 04:53:03;;;;;;;;;;;;;;;12.51;100.00;100389.63;5016459;28;19971;-43
2022/11/12 04:55:28;;;;;;;;;;;;;;;12.32;100.00;100396.00;5017537;28;20361;-42
2022/11/12 04:57:54;;;;;;;;;;;;;;;11.48;100.00;100422.16;5018601;28;19960;-43
2022/11/12 05:00:19;;;;;;;;;;;;;;;10.93;100.00;100437.41;5016730;28;19949;-42
2022/11/12 05:02:44;;;;;;;;;;;;;;;11.08;100.00;100432.09;5018979;28;19928;-42
2022/11/12 05:05:09;;;;;;;;;;;;;;;11.14;100.00;100431.16;5018522;28;19924;-42
2022/11/12 05:07:35;;;;;;;;;;;;;;;11.01;100.00;100430.44;5019095;28;19996;-42
2022/11/12 05:10:00;;;;;;;;;;;;;;;10.73;100.00;100428.16;5015555;28;20251;-42
2022/11/12 05:12:25;;;;;;;;;;;;;;;10.59;100.00;100419.72;5016574;28;20397;-42
2022/11/12 05:14:50;;;;;;;;;;;;;;;10.78;100.00;100428.09;5018723;28;19952;-42
2022/11/12 05:17:15;;;;;;;;;;;;;;;11.10;100.00;100422.59;5018582;28;20070;-42
2022/11/12 05:19:42;;;;;;;;;;;;;;;10.95;100.00;100415.03;5018570;28;20228;-42
2022/11/12 05:22:11;;;;;;;;;;;;;;;10.51;100.00;100411.19;5017968;28;20548;-43
2022/11/12 05:24:40;;;;;;;;;;;;;;;10.59;100.00;100420.56;5019369;28;19948;-42
2022/11/12 05:27:07;;;;;;;;;;;;;;;10.57;100.00;100421.44;5019598;28;19917;-42
2022/11/12 05:29:32;;;;;;;;;;;;;;;10.91;100.00;100418.53;5017457;28;20362;-42
2022/11/12 05:31:57;;;;;;;;;;;;;;;11.05;100.00;100419.22;5018648;28;19921;-42
2022/11/12 05:34:23;;;;;;;;;;;;;;;10.40;100.00;100427.59;5019437;28;20645;-42
2022/11/12 05:36:48;;;;;;;;;;;;;;;10.18;100.00;100433.75;5018932;28;20642;-43
2022/11/12 05:39:13;;;;;;;;;;;;;;;10.14;100.00;100430.34;5017386;28;19921;-42
2022/11/12 05:41:38;;;;;;;;;;;;;;;10.11;100.00;100430.38;5015744;28;19924;-42
2022/11/12 05:44:04;;;;;;;;;;;;;;;9.96;100.00;100439.03;5019194;28;19921;-42
2022/11/12 05:46:29;;;;;;;;;;;;;;;10.09;100.00;100431.25;5017185;28;20408;-42
2022/11/12 05:48:54;;;;;;;;;;;;;;;9.86;100.00;100424.53;5016489;28;19920;-42
2022/11/12 05:51:19;;;;;;;;;;;;;;;9.84;100.00;100431.41;5017385;28;20054;-42
2022/11/12 05:53:45;;;;;;;;;;;;;;;9.72;100.00;100424.59;5016702;28;20390;-42
2022/11/12 05:56:10;;;;;;;;;;;;;;;9.86;100.00;100428.81;5018714;28;20392;-42
2022/11/12 05:58:35;;;;;;;;;;;;;;;9.60;100.00;100434.94;5016822;28;20473;-42
2022/11/12 06:01:01;;;;;;;;;;;;;;;9.68;100.00;100430.63;5020128;28;19921;-42
2022/11/12 06:03:26;;;;;;;;;;;;;;;9.91;100.00;100430.50;5023174;28;20235;-42
2022/11/12 06:05:51;;;;;;;;;;;;;;;9.75;100.00;100423.72;5021019;28;19971;-42
2022/11/12 06:08:16;;;;;;;;;;;;;;;10.48;100.00;100408.66;5019987;28;19926;-42
2022/11/12 06:10:42;;;;;;;;;;;;;;;10.38;100.00;100403.59;5022225;28;19938;-42
2022/11/12 06:13:07;;;;;;;;;;;;;;;9.81;100.00;100423.72;5020806;28;19921;-42
2022/11/12 06:15:32;;;;;;;;;;;;;;;10.44;100.00;100408.66;5022010;28;19927;-42
2022/11/12 06:17:57;;;;;;;;;;;;;;;10.62;100.00;100396.47;5019622;28;19932;-42
2022/11/12 06:20:23;;;;;;;;;;;;;;;10.46;100.00;100400.94;5020568;28;19921;-42
2022/11/12 06:22:48;;;;;;;;;;;;;;;10.30;100.00;100412.22;5019858;28;19925;-42
2022/11/12 06:25:13;;;;;;;;;;;;;;;10.29;100.00;100403.66;5021765;28;19920;-42
2022/11/12 06:27:39;;;;;;;;;;;;;;;9.84;100.00;100410.81;5020747;28;19987;-42
2022/11/12 06:30:04;;;;;;;;;;;;;;;9.93;100.00;100415.91;5018930;28;20246;-42
2022/11/12 06:32:29;;;;;;;;;;;;;;;9.90;100.00;100415.94;5020636;28;19920;-42
2022/11/12 06:34:55;;;;;;;;;;;;;;;9.81;100.00;100410.84;5021480;28;20844;-42
2022/11/12 06:37:20;;;;;;;;;;;;;;;9.98;100.00;100409.00;5018564;28;20263;-42
2022/11/12 06:39:46;;;;;;;;;;;;;;;9.79;100.00;100410.00;5017100;28;19957;-42
2022/11/12 06:42:11;;;;;;;;;;;;;;;9.97;100.00;100409.03;5017261;28;19967;-42
2022/11/12 06:44:36;;;;;;;;;;;;;;;10.25;100.00;100396.78;5019392;28;19979;-42
2022/11/12 06:47:01;;;;;;;;;;;;;;;10.38;100.00;100400.16;5019177;28;20055;-42
2022/11/12 06:49:27;;;;;;;;;;;;;;;10.18;100.00;100400.28;5020648;28;19979;-42
2022/11/12 06:51:52;;;;;;;;;;;;;;;10.68;100.00;100401.59;5020448;28;19932;-43
2022/11/12 06:54:17;;;;;;;;;;;;;;;10.66;100.00;100391.28;5021618;28;19925;-42
2022/11/12 06:56:42;;;;;;;;;;;;;;;11.11;100.00;100385.66;5017919;28;19921;-42
2022/11/12 06:59:08;;;;;;;;;;;;;;;10.90;100.00;100386.72;5021412;28;19921;-43
2022/11/12 07:01:33;;;;;;;;;;;;;;;10.57;100.00;100393.94;5019687;28;19959;-42
2022/11/12 07:03:58;;;;;;;;;;;;;;;10.39;100.00;100415.56;5021185;28;20333;-42
2022/11/12 07:06:23;;;;;;;;;;;;;;;10.55;100.00;100408.56;5019562;28;20768;-42
2022/11/12 07:08:49;;;;;;;;;;;;;;;10.65;100.00;100404.16;5020223;28;19920;-42
2022/11/12 07:11:15;;;;;;;;;;;;;;;10.70;100.00;100410.16;5020586;28;19921;-43
2022/11/12 07:13:40;;;;;;;;;;;;;;;10.94;100.00;100405.59;5020517;28;19949;-43
2022/11/12 07:16:06;;;;;;;;;;;;;;;11.87;100.00;100398.41;5019578;28;19925;-42
2022/11/12 07:18:32;;;;;;;;;;;;;;;10.68;100.00;100406.75;5017765;28;19932;-42
2022/11/12 07:21:01;;;;;;;;;;;;;;;10.24;100.00;100425.97;5019848;28;19928;-41
2022/11/12 07:23:26;;;;;;;;;;;;;;;10.58;100.00;100431.75;5021409;28;19921;-41
2022/11/12 07:26:18;;;;;;;;;;;;;;;10.79;100.00;100430.69;5018481;28;20385;-41
2022/11/12 07:28:43;;;;;;;;;;;;;;;10.73;100.00;100410.13;5019672;28;19913;-41
2022/11/12 07:31:09;;;;;;;;;;;;;;;10.93;100.00;100416.81;5023407;28;19944;-41
2022/11/12 07:33:35;;;;;;;;;;;;;;;10.96;100.00;100414.19;5019333;28;19921;-41
2022/11/12 07:36:03;;;;;;;;;;;;;;;10.98;100.00;100420.19;5019037;28;20258;-41
2022/11/12 07:38:29;;;;;;;;;;;;;;;11.38;100.00;100414.53;5018566;28;19925;-41
2022/11/12 07:41:01;;;;;;;;;;;;;;;11.62;100.00;100409.06;5017765;28;19932;-41
2022/11/12 07:43:27;;;;;;;;;;;;;;;11.58;100.00;100402.22;5018970;28;19963;-41
2022/11/12 07:45:52;;;;;;;;;;;;;;;11.48;100.00;100410.97;5018109;28;19960;-41
2022/11/12 07:48:17;;;;;;;;;;;;;;;11.43;100.00;100412.78;5015750;28;20875;-41
2022/11/12 07:50:42;;;;;;;;;;;;;;;11.57;100.00;100405.69;5019033;28;19955;-41
2022/11/12 07:53:08;;;;;;;;;;;;;;;11.17;100.00;100415.66;5018744;28;19921;-41
2022/11/12 07:55:33;;;;;;;;;;;;;;;11.15;100.00;100418.25;5019694;28;19928;-41
2022/11/12 07:57:58;;;;;;;;;;;;;;;11.01;100.00;100415.81;5020369;28;19921;-41
2022/11/12 08:00:24;;;;;;;;;;;;;;;10.96;100.00;100416.75;5018067;28;19917;-41
2022/11/12 08:02:49;;;;;;;;;;;;;;;12.62;100.00;100389.44;5017188;28;19917;-41
2022/11/12 08:05:14;;;;;;;;;;;;;;;11.76;100.00;100395.97;5020835;28;20031;-41
2022/11/12 08:07:39;;;;;;;;;;;;;;;12.62;100.00;100383.44;5019569;28;19983;-41
2022/11/12 08:10:06;;;;;;;;;;;;;;;11.83;100.00;100401.88;5018751;28;19921;-41
2022/11/12 08:12:31;;;;;;;;;;;;;;;11.42;100.00;100408.47;5020608;28;19964;-41
2022/11/12 08:14:56;;;;;;;;;;;;;;;12.20;100.00;100407.41;5018601;28;19921;-41
2022/11/12 08:17:21;;;;;;;;;;;;;;;11.67;100.00;100406.41;5019608;28;19928;-42
2022/11/12 08:19:46;;;;;;;;;;;;;;;11.78;100.00;100414.88;5018457;28;19932;-42
2022/11/12 08:22:12;;;;;;;;;;;;;;;12.09;100.00;100409.28;5018567;28;19925;-41
2022/11/12 08:24:37;;;;;;;;;;;;;;;11.80;100.00;100413.13;5019862;28;19925;-41
2022/11/12 08:27:02;;;;;;;;;;;;;;;12.11;100.00;100408.38;5020009;28;19924;-41
2022/11/12 08:29:27;;;;;;;;;;;;;;;12.05;100.00;100408.47;5017138;28;19925;-41
2022/11/12 08:31:52;;;;;;;;;;;;;;;12.42;100.00;100391.53;5019029;28;19959;-41
2022/11/12 08:34:18;;;;;;;;;;;;;;;12.61;100.00;100386.88;5020620;28;20039;-40
2022/11/12 08:36:43;;;;;;;;;;;;;;;12.26;99.65;100380.59;5019486;28;20166;-42
2022/11/12 08:39:08;;;;;;;;;;;;;;;12.29;99.77;100386.59;5017304;28;19961;-41
2022/11/12 08:41:34;;;;;;;;;;;;;;;12.35;99.38;100383.03;5018867;28;19964;-41
2022/11/12 08:43:59;;;;;;;;;;;;;;;12.47;99.75;100382.81;5018926;28;19921;-41
2022/11/12 08:46:24;;;;;;;;;;;;;;;12.25;100.00;100391.81;5018066;28;20441;-41
2022/11/12 08:48:50;;;;;;;;;;;;;;;12.30;100.00;100385.69;5018045;28;20039;-41
2022/11/12 08:51:15;;;;;;;;;;;;;;;12.67;99.29;100382.44;5018361;28;19921;-41
2022/11/12 08:53:40;;;;;;;;;;;;;;;13.18;97.87;100381.47;5012839;28;19921;-42
2022/11/12 08:56:05;;;;;;;;;;;;;;;13.30;98.13;100383.84;5017880;28;19975;-42
2022/11/12 08:58:31;;;;;;;;;;;;;;;13.68;96.08;100376.94;5018042;28;19921;-42
2022/11/12 09:00:56;;;;;;;;;;;;;;;14.28;95.25;100369.50;5017880;28;19921;-41
2022/11/12 09:03:22;;;;;;;;;;;;;;;14.53;93.29;100357.63;5017585;28;19921;-41
2022/11/12 09:05:47;;;;;;;;;;;;;;;14.60;92.39;100366.13;5019363;28;20058;-44
2022/11/12 09:08:14;;;;;;;;;;;;;;;14.73;92.32;100364.03;5015741;28;20390;-42
2022/11/12 09:10:40;;;;;;;;;;;;;;;14.82;91.67;100362.06;5016910;28;20015;-40
2022/11/12 09:13:05;;;;;;;;;;;;;;;15.41;90.32;100358.59;5018185;28;19928;-41
2022/11/12 09:15:30;;;;;;;;;;;;;;;15.16;88.75;100360.22;5001808;28;20016;-41
2022/11/12 09:18:00;;;;;;;;;;;;;;;15.60;87.24;100358.03;5017952;28;19921;-43
2022/11/12 09:20:25;;;;;;;;;;;;;;;15.80;85.61;100347.91;5017031;28;19925;-44
2022/11/12 09:22:50;;;;;;;;;;;;;;;15.83;83.93;100353.03;5017257;28;19917;-43
2022/11/12 09:25:16;;;;;;;;;;;;;;;16.26;83.14;100351.63;5017818;28;19924;-42
2022/11/12 09:27:41;;;;;;;;;;;;;;;15.84;81.79;100365.09;5016123;28;19979;-42
2022/11/12 09:30:06;;;;;;;;;;;;;;;15.92;82.22;100357.09;5016086;28;19921;-42
2022/11/12 09:32:32;;;;;;;;;;;;;;;15.88;83.64;100366.72;5018153;28;19955;-41
2022/11/12 09:34:57;;;;;;;;;;;;;;;16.11;84.19;100362.50;5024152;28;21172;-45
2022/11/12 09:37:22;;;;;;;;;;;;;;;16.16;83.85;100360.59;5018538;28;19932;-42
2022/11/12 09:39:48;;;;;;;;;;;;;;;16.62;83.39;100353.81;5017746;28;19925;-41
2022/11/12 09:42:14;;;;;;;;;;;;;;;16.65;81.51;100353.75;5021935;28;20378;-41
2022/11/12 09:44:39;;;;;;;;;;;;;;;16.68;80.99;100348.41;5019440;28;20541;-42
2022/11/12 09:47:06;;;;;;;;;;;;;;;16.66;79.89;100345.00;5017770;28;19924;-42
2022/11/12 09:49:40;;;;;;;;;;;;;;;16.72;80.15;100346.56;5020296;28;20367;-43
2022/11/12 09:52:09;;;;;;;;;;;;;;;16.75;79.77;100353.41;5004332;28;20354;-43
2022/11/12 09:54:34;;;;;;;;;;;;;;;16.62;79.78;100356.44;5022362;28;19917;-42
2022/11/12 09:57:00;;;;;;;;;;;;;;;16.47;80.27;100354.38;5021493;28;19979;-42
2022/11/12 09:59:34;;;;;;;;;;;;;;;16.98;80.33;100350.00;5020317;28;19990;-41
2022/11/12 10:02:01;;;;;;;;;;;;;;;16.64;80.82;100358.97;5021462;28;19940;-42
2022/11/12 10:04:32;;;;;;;;;;;;;;;16.99;79.46;100346.47;5021911;28;20036;-42
2022/11/12 10:06:57;;;;;;;;;;;;;;;16.79;79.15;100355.88;5020743;28;20275;-43
2022/11/12 10:09:23;;;;;;;;;;;;;;;16.91;78.34;100350.22;5022464;28;19917;-39
2022/11/12 10:14:46;;;;;;;;;;;;;;;17.23;77.58;100344.72;5020822;28;20330;-42
2022/11/12 10:17:18;;;;;;;;;;;;;;;17.77;75.97;100341.72;5021703;28;20382;-44
2022/11/12 10:19:43;;;;;;;;;;;;;;;18.22;74.98;100339.91;5017991;28;19921;-45
2022/11/12 10:22:18;;;;;;;;;;;;;;;18.36;74.89;100345.41;5019705;28;19921;-45
2022/11/12 10:24:43;;;;;;;;;;;;;;;18.06;75.13;100346.69;5021230;28;19917;-43
2022/11/12 10:27:18;;;;;;;;;;;;;;;18.63;75.91;100350.31;5020058;28;19917;-45
2022/11/12 10:29:48;;;;;;;;;;;;;;;18.16;74.96;100342.78;5019721;28;20374;-44
2022/11/12 10:32:14;;;;;;;;;;;;;;;18.74;74.15;100345.47;5020255;28;20479;-43
2022/11/12 10:34:39;;;;;;;;;;;;;;;19.51;71.86;100342.00;5020657;28;19920;-43
2022/11/12 10:37:17;;;;;;;;;;;;;;;19.14;69.66;100341.13;5020631;28;19921;-43
2022/11/12 10:39:45;;;;;;;;;;;;;;;18.97;71.51;100347.09;5020284;28;20547;-45
2022/11/12 10:42:11;;;;;;;;;;;;;;;19.41;69.20;100336.38;5019227;28;19926;-44
2022/11/12 10:44:37;;;;;;;;;;;;;;;19.90;68.06;100333.19;5021195;28;19927;-44
2022/11/12 10:47:25;;;;;;;;;;;;;;;19.91;68.12;100334.88;5013841;28;19920;-44
2022/11/12 10:50:04;;;;;;;;;;;;;;;19.90;65.29;100330.56;5001587;28;19932;-44
2022/11/12 10:52:30;;;;;;;;;;;;;;;19.30;67.21;100338.63;5016535;28;20027;-42
2022/11/12 10:55:14;;;;;;;;;;;;;;;18.96;69.38;100334.13;5019021;28;20048;-43
2022/11/12 10:57:39;;;;;;;;;;;;;;;19.56;67.43;100328.72;5016702;28;20007;-44
2022/11/12 11:00:14;;;;;;;;;;;;;;;20.56;65.95;100322.00;5020126;28;19927;-43
2022/11/12 11:02:52;;;;;;;;;;;;;;;20.92;66.08;100320.16;5018678;28;19921;-44
2022/11/12 11:05:34;;;;;;;;;;;;;;;21.04;59.94;100317.69;5035063;28;19921;-43
2022/11/12 11:08:00;;;;;;;;;;;;;;;21.50;54.40;100314.34;5019765;28;19920;-43
2022/11/12 11:10:30;;;;;;;;;;;;;;;21.63;52.62;100310.09;5021766;28;20167;-44
2022/11/12 11:13:08;;;;;;;;;;;;;;;21.70;52.53;100321.91;5018678;28;19921;-44
2022/11/12 11:15:33;;;;;;;;;;;;;;;21.97;51.64;100320.44;5020524;28;19921;-43
2022/11/12 11:17:58;;;;;;;;;;;;;;;21.17;49.37;100317.06;5003255;28;20043;-44
2022/11/12 11:20:25;;;;;;;;;;;;;;;20.52;60.39;100340.53;5019215;28;20409;-44
2022/11/12 11:23:03;;;;;;;;;;;;;;;20.23;70.08;100361.19;5020651;28;19917;-43
2022/11/12 11:25:28;;;;;;;;;;;;;;;19.92;77.77;100373.16;5019499;28;19925;-42
2022/11/12 11:28:06;;;;;;;;;;;;;;;20.25;78.97;100359.34;5020086;28;19924;-42
2022/11/12 11:30:31;;;;;;;;;;;;;;;20.74;78.31;100350.78;5020044;28;19921;-44
2022/11/12 11:33:03;;;;;;;;;;;;;;;20.79;82.97;100357.44;5019271;28;20447;-43
2022/11/12 11:35:46;;;;;;;;;;;;;;;21.56;80.86;100350.69;5018253;28;19929;-43
2022/11/12 11:38:15;;;;;;;;;;;;;;;20.30;84.07;100357.34;5015440;28;20015;-43
2022/11/12 11:40:44;;;;;;;;;;;;;;;19.75;84.16;100357.44;5021432;28;19975;-43
2022/11/12 11:43:12;;;;;;;;;;;;;;;20.81;84.06;100339.88;5020184;28;19964;-44
2022/11/12 11:45:40;;;;;;;;;;;;;;;20.45;83.88;100351.31;5019423;28;20302;-45
2022/11/12 11:48:28;;;;;;;;;;;;;;;21.19;81.45;100344.84;5019968;28;19917;-39
2022/11/12 11:50:56;;;;;;;;;;;;;;;21.28;80.60;100336.47;5018331;28;20940;-44
2022/11/12 11:53:24;;;;;;;;;;;;;;;21.26;80.96;100345.38;5017999;28;19921;-55
2022/11/12 11:55:53;;;;;;;;;;;;;;;21.43;82.42;100341.84;5021527;28;19917;-42
2022/11/12 11:58:22;;;;;;;;;;;;;;;21.05;82.50;100352.59;5017463;28;19925;-42
2022/11/12 12:01:01;;;;;;;;;;;;;;;21.37;80.22;100337.75;5020179;28;19917;-42
2022/11/12 12:03:30;;;;;;;;;;;;;;;21.28;79.27;100335.66;5018143;28;19960;-42
2022/11/12 12:06:19;;;;;;;;;;;;;;;21.24;80.20;100334.13;5018250;28;19998;-42
2022/11/12 12:08:58;;;;;;;;;;;;;;;21.06;80.36;100338.59;5011871;28;20520;-43
2022/11/12 12:11:30;;;;;;;;;;;;;;;21.93;78.71;100338.94;5018142;28;20399;-43
2022/11/12 12:13:56;;;;;;;;;;;;;;;22.07;78.24;100332.91;5002448;28;20015;-43
2022/11/12 12:16:33;;;;;;;;;;;;;;;21.89;75.79;100321.69;5019967;28;20007;-42
2022/11/12 12:19:01;;;;;;;;;;;;;;;22.31;77.04;100321.94;5019047;28;19929;-42
2022/11/12 12:21:27;;;;;;;;;;;;;;;22.65;77.57;100333.00;5018081;28;19948;-42
2022/11/12 12:23:55;;;;;;;;;;;;;;;22.46;79.12;100326.25;5020111;28;19925;-42
2022/11/12 12:26:24;;;;;;;;;;;;;;;22.63;76.35;100324.41;5032471;28;19971;-43
2022/11/12 12:28:55;;;;;;;;;;;;;;;22.84;77.14;100323.06;4998940;28;20267;-43
2022/11/12 12:31:22;;;;;;;;;;;;;;;22.74;76.12;100312.31;5018470;28;20481;-43
2022/11/12 12:34:04;;;;;;;;;;;;;;;22.40;78.83;100315.28;5018428;28;19932;-42
2022/11/12 12:36:30;;;;;;;;;;;;;;;21.00;91.53;100346.75;5018285;28;20035;-42
2022/11/12 12:38:59;;;;;;;;;;;;;;;20.72;95.85;100350.84;5015722;28;19921;-43
2022/11/12 12:41:28;;;;;;;;;;;;;;;20.63;97.67;100349.56;5017780;28;19921;-43
2022/11/12 12:43:54;;;;;;;;;;;;;;;20.84;96.97;100337.09;5016008;28;19925;-42
2022/11/12 12:46:21;;;;;;;;;;;;;;;20.45;96.05;100330.38;5016953;28;19924;-51
2022/11/12 12:48:46;;;;;;;;;;;;;;;20.66;96.67;100322.38;5016704;28;19921;-41
2022/11/12 12:51:11;;;;;;;;;;;;;;;20.56;95.47;100326.38;5017329;28;19927;-41
2022/11/12 12:53:37;;;;;;;;;;;;;;;21.21;96.22;100321.16;5012845;28;19920;-42